Marcellus, MI (49067)

6:16 PM EST on February 01, 2015 (GMT -0500)
Farming/Agriculture | Change Station
CLOSE
Current Station
Personal Weather Station
Location: Decatur, MI
Elevation: 864 ft
Nearby Weather Stations
Active Advisory: Winter Storm Warning Active Notice: Local Storm Report

Elev 864 ft 42.05 °N, 85.91 °W | Updated 1 minute ago

Light Snow
Light Snow
16.9 °F
Feels Like -1 °F
N
24.5
Wind Variable Wind from NE
Gusts 40.8 mph

Today
High -- | Low -- °F
--% Chance of Precip.
Yesterday
High -- | Low -- °F
Precip. -- in
7:56 AM 5:57 PM
Waxing Gibbous, 96% visible
Pressure 29.73 in
Visibility 0.8 miles
Clouds Overcast 600 ft
Windchill -1 °F
Dew Point 12 °F
Humidity 82%
Rainfall 0.00 in
Snow Depth Not available.
UV 0 out of 12
Pollen .10 out of 12
Air Quality Not available.
Flu Activity Not available.
METAR KHAI 012255Z AUTO 05012G24KT 3/4SM -SN OVC006 M08/M09 A2973 RMK AO2 T10771095

More Conditions Fewer Conditions

Pressure 29.73 in
Visibility 0.8 miles
Clouds Overcast 600 ft
Windchill -1 °F
Dew Point 12 °F
Humidity 82%
Rainfall 0.00 in
Snow Depth Not available.
UV 0 out of 12
Pollen .10 out of 12
Air Quality Not available.
Flu Activity Not available.
METAR KHAI 012255Z AUTO 05012G24KT 3/4SM -SN OVC006 M08/M09 A2973 RMK AO2 T10771095

More Conditions Fewer Conditions

10-Day Weather Forecast

Almanac

Astronomy

Feb. 01, 2015 Rise Set
Actual Time
Civil Twilight
Nautical Twilight
Astronomical Twilight
Moon
Length of Visible Light
Length of Day
Tomorrow will be .
, % of the Moon is Illuminated

Today's Extremes

State Highs State Lows

Community

WunderPhotos

Upload Photos

1,792,603 photos uploaded!

WunderBlogs® & News

Nearby

Air Quality

  Air Quality AQ Index Pollutant
Not available.

Snow Depth

Station Depth Elevation

Earthquake Activity

City Distance Mag. Time & Date
Minimum magnitude displayed is 2.5.

Coastal Water Temperatures

Place Temperature

Nearby Weather Stations